Airfield :
LOGIN :

Register | Disclaimer

   EN    FR    IT 

 










Legend :    VFR   Marginal VFR   IFR   Intensive IFR   Very Intensive IFR
Visi :
Ceiling :
>= 8 km
>= 3000ft
5 to 8 km
1000 to 3000 ft
1500m to 5 km
500 to 1000 ft
800 to 1500m
200 to 500 ft
< 800m
< 200 ft
Symbols :   Thunderstorms  Fog  Heavy snow  Heavy precipitations  Wind > 20 kt
SIGMETs :     Misc.  Thunderstorms  Icing  Turbulence  Mountain Waves  Volcanic Ashes







- Airport Elevation : 5600 ft
- IATA code : SMV


LSZS - Samedan

CURRENT METAR :
  • 190320Z AUTO 00000KT 6000 -SN BR BKN/// M05/M06 Q1005

EXPIRED METARs :
  • 190250Z AUTO 00000KT 9000 -SN BKN/// M05/M06 Q1006
  • 190220Z AUTO 00000KT 9999 -SN BKN/// M05/M06 Q1006
  • 190150Z AUTO 00000KT 9999 -SN BKN/// M05/M06 Q1007
  • 190120Z AUTO 00000KT 2800 -SN BR BKN/// M05/M06 Q1007
  • 190050Z AUTO 23002KT 2100 -SN BR BKN/// M05/M06 Q1007

Expired Forecast.
ATIS : +41 81 834 93 24
No reported NOTAMs for that airfield.



MET'MAP, your aeronautical weather chart ! - Copyright ORBIFLY December 2007 - Disclaimer

ORBIFLY MET'MAP TEAM :

Programming & Development : Alexandra Zaïnal
Concept & Development : Baudouin d'Aumeries
Co-Development & Prog : Marc-Olivier Méhu
Technical & hardware support : Manuel Goepfert

Contact : metmap@orbifly.com




SOURCES & CREDITS :

   NOAA